createdAt,value
2019-03-29T00:03:41.473Z,99768.00
2019-03-29T00:08:50.305Z,99769.00
2019-03-29T00:14:00.155Z,99772.00
2019-03-29T00:19:07.694Z,99783.00
2019-03-29T00:24:15.248Z,99780.00
2019-03-29T00:29:24.715Z,99776.00
2019-03-29T00:34:34.684Z,99788.00
2019-03-29T00:39:43.823Z,99781.00
2019-03-29T00:44:51.264Z,99773.00
2019-03-29T00:49:58.755Z,99777.00
2019-03-29T00:55:07.674Z,99772.00
2019-03-29T01:00:15.830Z,99772.00
2019-03-29T01:05:23.737Z,99767.00
2019-03-29T01:10:33.485Z,99763.00
2019-03-29T01:15:42.714Z,99761.00
2019-03-29T01:20:51.383Z,99759.00
2019-03-29T01:25:58.073Z,99741.00
2019-03-29T01:31:05.178Z,99745.00
2019-03-29T01:36:13.900Z,99732.00
2019-03-29T01:41:21.702Z,99732.00
2019-03-29T01:46:29.992Z,99727.00
2019-03-29T01:51:36.732Z,99716.00
2019-03-29T01:56:46.772Z,99724.00
2019-03-29T02:01:54.940Z,99734.00
2019-03-29T02:07:01.046Z,99721.00
2019-03-29T02:12:07.369Z,99722.00
2019-03-29T02:17:14.051Z,99724.00
2019-03-29T02:22:20.043Z,99719.00
2019-03-29T02:27:26.438Z,99716.00
2019-03-29T02:32:33.325Z,99719.00
2019-03-29T02:37:39.374Z,99723.00
2019-03-29T02:42:46.287Z,99717.00
2019-03-29T02:47:52.821Z,99722.00
2019-03-29T02:53:16.004Z,99726.00
2019-03-29T02:58:23.760Z,99723.00
2019-03-29T03:03:29.812Z,99723.00
2019-03-29T03:08:37.180Z,99727.00
2019-03-29T03:13:44.014Z,99723.00
2019-03-29T03:18:50.108Z,99713.00
2019-03-29T03:23:57.896Z,99717.00
2019-03-29T03:29:06.236Z,99711.00
2019-03-29T03:34:13.752Z,99706.00
2019-03-29T03:39:31.317Z,99710.00
2019-03-29T03:44:30.187Z,99704.00
2019-03-29T03:49:38.289Z,99700.00
2019-03-29T03:54:45.309Z,99706.00
2019-03-29T03:59:53.942Z,99703.00
2019-03-29T04:05:01.634Z,99700.00
2019-03-29T04:10:08.900Z,99698.00
2019-03-29T04:15:15.705Z,99693.00
2019-03-29T04:20:22.485Z,99692.00
2019-03-29T04:25:28.457Z,99687.00
2019-03-29T04:30:34.547Z,99693.00
2019-03-29T04:35:40.639Z,99691.00
2019-03-29T04:40:46.608Z,99693.00
2019-03-29T04:45:52.576Z,99690.00
2019-03-29T04:50:58.577Z,99691.00
2019-03-29T04:56:05.418Z,99701.00
2019-03-29T05:01:12.305Z,99698.00
2019-03-29T05:06:19.220Z,99704.00
2019-03-29T05:11:26.425Z,99700.00
2019-03-29T05:16:32.392Z,99703.00
2019-03-29T05:21:38.352Z,99709.00
2019-03-29T05:26:45.483Z,99708.00
2019-03-29T05:31:55.057Z,99700.00
2019-03-29T05:37:01.918Z,99708.00
2019-03-29T05:42:08.423Z,99710.00
2019-03-29T05:47:14.491Z,99719.00
2019-03-29T05:52:21.272Z,99717.00
2019-03-29T05:57:27.539Z,99732.00
2019-03-29T06:02:33.537Z,99725.00
2019-03-29T06:07:40.432Z,99721.00
2019-03-29T06:12:47.515Z,99720.00
2019-03-29T06:17:55.619Z,99713.00
2019-03-29T06:23:01.574Z,99709.00
2019-03-29T06:28:07.582Z,99713.00
2019-03-29T06:33:14.383Z,99713.00
2019-03-29T06:38:24.153Z,99713.00
2019-03-29T06:43:30.122Z,99709.00
2019-03-29T06:48:37.203Z,99710.00
2019-03-29T06:53:44.336Z,99707.00
2019-03-29T06:58:51.067Z,99708.00
2019-03-29T07:03:57.973Z,99712.00
2019-03-29T07:09:06.931Z,99711.00
2019-03-29T07:14:35.338Z,99713.00
2019-03-29T07:19:42.334Z,99711.00
2019-03-29T07:24:50.718Z,99719.00
2019-03-29T07:29:57.998Z,99720.00
2019-03-29T07:35:07.816Z,99719.00
2019-03-29T07:40:14.882Z,99714.00
2019-03-29T07:45:22.122Z,99712.00
2019-03-29T07:50:31.667Z,99716.00
2019-03-29T07:55:38.975Z,99707.00
2019-03-29T08:00:46.851Z,99714.00
2019-03-29T08:05:54.617Z,99703.00
2019-03-29T08:11:02.321Z,99705.00
2019-03-29T08:16:09.000Z,99702.00
2019-03-29T08:21:15.078Z,99707.00
2019-03-29T08:26:22.332Z,99701.00
2019-03-29T08:31:30.098Z,99699.00
2019-03-29T08:36:36.853Z,99699.00
2019-03-29T08:41:42.884Z,99696.00
2019-03-29T08:46:49.742Z,99696.00
2019-03-29T08:51:56.220Z,99699.00
2019-03-29T08:57:02.201Z,99711.00
2019-03-29T09:02:09.147Z,99713.00
2019-03-29T09:07:15.168Z,99705.00
2019-03-29T09:12:22.383Z,99701.00
2019-03-29T09:17:30.347Z,99707.00
2019-03-29T09:22:38.459Z,99705.00
2019-03-29T09:27:44.497Z,99696.00
2019-03-29T09:32:51.423Z,99701.00
2019-03-29T09:37:58.742Z,99703.00
2019-03-29T09:43:08.016Z,99706.00
2019-03-29T09:48:15.512Z,99705.00
2019-03-29T09:53:23.350Z,99704.00
2019-03-29T09:58:30.252Z,99701.00
2019-03-29T10:03:36.243Z,99701.00
2019-03-29T10:08:43.282Z,99694.00
2019-03-29T10:13:51.000Z,99700.00
2019-03-29T10:18:56.970Z,99690.00
2019-03-29T10:24:03.874Z,99686.00
2019-03-29T10:29:10.072Z,99687.00
2019-03-29T10:34:17.172Z,99674.00
2019-03-29T10:39:26.320Z,99655.00
2019-03-29T10:44:33.189Z,99662.00
2019-03-29T10:49:40.300Z,99664.00
2019-03-29T10:54:49.862Z,99652.00
2019-03-29T10:59:55.787Z,99653.00
2019-03-29T11:05:04.681Z,99647.00
2019-03-29T11:10:15.554Z,99635.00
2019-03-29T11:15:22.748Z,99634.00
2019-03-29T11:20:28.708Z,99640.00
2019-03-29T11:25:34.677Z,99630.00
2019-03-29T11:30:42.983Z,99622.00
2019-03-29T11:35:49.306Z,99629.00
2019-03-29T11:40:56.502Z,99608.00
2019-03-29T11:46:03.382Z,99604.00
2019-03-29T11:51:19.338Z,99597.00
2019-03-29T11:56:18.879Z,99587.00
2019-03-29T12:01:24.845Z,99593.00
2019-03-29T12:06:30.820Z,99581.00
2019-03-29T12:11:36.918Z,99578.00
2019-03-29T12:16:43.811Z,99561.00
2019-03-29T12:21:50.696Z,99548.00
2019-03-29T12:26:57.519Z,99545.00
2019-03-29T12:32:04.073Z,99534.00
2019-03-29T12:37:10.674Z,99531.00
2019-03-29T12:42:17.234Z,99519.00
2019-03-29T12:47:23.206Z,99510.00
2019-03-29T12:52:29.835Z,99502.00
2019-03-29T12:57:38.774Z,99496.00
2019-03-29T13:02:43.465Z,99487.00
2019-03-29T13:07:53.190Z,99480.00
2019-03-29T13:13:00.687Z,99475.00
2019-03-29T13:18:07.662Z,99473.00
2019-03-29T13:23:13.742Z,99459.00
2019-03-29T13:28:20.220Z,99454.00
2019-03-29T13:33:28.070Z,99451.00
2019-03-29T13:38:34.015Z,99440.00
2019-03-29T13:43:41.073Z,99426.00
2019-03-29T13:48:47.888Z,99433.00
2019-03-29T13:53:53.880Z,99426.00
2019-03-29T13:59:00.733Z,99414.00
2019-03-29T14:04:07.410Z,99416.00
2019-03-29T14:09:14.330Z,99404.00
2019-03-29T14:14:20.307Z,99392.00
2019-03-29T14:19:27.270Z,99391.00
2019-03-29T14:24:33.198Z,99379.00
2019-03-29T14:29:39.752Z,99371.00
2019-03-29T14:34:45.753Z,99372.00
2019-03-29T14:39:52.334Z,99370.00
2019-03-29T14:44:58.327Z,99359.00
2019-03-29T14:50:09.594Z,99352.00
2019-03-29T14:55:16.290Z,99345.00
2019-03-29T15:00:44.207Z,99348.00
2019-03-29T15:05:50.549Z,99342.00
2019-03-29T15:10:57.058Z,99326.00
2019-03-29T15:16:03.786Z,99327.00
2019-03-29T15:21:12.110Z,99325.00
2019-03-29T15:26:18.339Z,99318.00
2019-03-29T15:31:25.074Z,99323.00
2019-03-29T15:36:31.120Z,99316.00
2019-03-29T15:41:37.148Z,99312.00
2019-03-29T15:46:43.925Z,99306.00
2019-03-29T15:51:49.876Z,99305.00
2019-03-29T15:56:56.404Z,99306.00
2019-03-29T16:02:02.412Z,99305.00
2019-03-29T16:07:08.415Z,99294.00
2019-03-29T16:12:14.936Z,99275.00
2019-03-29T16:17:22.935Z,99288.00
2019-03-29T16:22:29.745Z,99279.00
2019-03-29T16:27:37.878Z,99273.00
2019-03-29T16:32:44.837Z,99267.00
2019-03-29T16:37:57.348Z,99274.00
2019-03-29T16:43:00.573Z,99267.00
2019-03-29T16:48:07.049Z,99263.00
2019-03-29T16:53:13.899Z,99266.00
2019-03-29T16:58:20.463Z,99276.00
2019-03-29T17:03:28.264Z,99262.00
2019-03-29T17:08:34.267Z,99259.00
2019-03-29T17:13:40.338Z,99272.00
2019-03-29T17:18:47.150Z,99265.00
2019-03-29T17:23:53.201Z,99255.00
2019-03-29T17:29:01.005Z,99250.00
2019-03-29T17:34:07.926Z,99251.00
2019-03-29T17:39:14.777Z,99247.00
2019-03-29T17:44:21.720Z,99249.00
2019-03-29T17:49:28.520Z,99239.00
2019-03-29T17:54:34.482Z,99243.00
2019-03-29T17:59:42.350Z,99250.00
2019-03-29T18:04:50.670Z,99252.00
2019-03-29T18:09:57.879Z,99243.00
2019-03-29T18:15:07.230Z,99235.00
2019-03-29T18:20:16.452Z,99242.00
2019-03-29T18:25:23.281Z,99246.00
2019-03-29T18:30:41.393Z,99239.00
2019-03-29T18:35:48.851Z,99237.00
2019-03-29T18:40:57.320Z,99240.00
2019-03-29T18:46:03.996Z,99232.00
2019-03-29T18:51:11.271Z,99227.00
2019-03-29T18:56:18.635Z,99225.00
2019-03-29T19:01:26.426Z,99228.00
2019-03-29T19:06:35.537Z,99236.00
2019-03-29T19:11:43.802Z,99221.00
2019-03-29T19:16:58.825Z,99229.00
2019-03-29T19:22:01.877Z,99231.00
2019-03-29T19:27:09.138Z,99228.00
2019-03-29T19:32:16.041Z,99217.00
2019-03-29T19:37:23.507Z,99219.00
2019-03-29T19:42:41.967Z,99221.00
2019-03-29T19:48:11.005Z,99213.00
2019-03-29T19:53:17.474Z,99208.00
2019-03-29T19:58:24.766Z,99209.00
2019-03-29T20:03:31.442Z,99201.00
2019-03-29T20:08:39.204Z,99208.00
2019-03-29T20:13:46.419Z,99207.00
2019-03-29T20:18:54.188Z,99201.00
2019-03-29T20:24:01.577Z,99210.00
2019-03-29T20:29:10.054Z,99201.00
2019-03-29T20:34:18.885Z,99197.00
2019-03-29T20:39:48.171Z,99188.00
2019-03-29T20:44:57.170Z,99196.00
2019-03-29T20:50:05.076Z,99192.00
2019-03-29T20:55:12.668Z,99185.00
2019-03-29T21:00:21.961Z,99190.00
2019-03-29T21:05:50.717Z,99179.00
2019-03-29T21:10:58.545Z,99180.00
2019-03-29T21:16:07.124Z,99177.00
2019-03-29T21:21:15.274Z,99189.00
2019-03-29T21:26:24.355Z,99182.00
2019-03-29T21:31:30.774Z,99183.00
2019-03-29T21:36:39.789Z,99181.00
2019-03-29T21:41:47.492Z,99178.00
2019-03-29T21:46:55.670Z,99163.00
2019-03-29T21:52:04.204Z,99168.00
2019-03-29T21:57:12.273Z,99166.00
2019-03-29T22:02:21.585Z,99166.00
2019-03-29T22:07:29.682Z,99167.00
2019-03-29T22:12:37.959Z,99156.00
2019-03-29T22:17:47.372Z,99161.00
2019-03-29T22:22:55.377Z,99146.00
2019-03-29T22:28:02.200Z,99155.00
2019-03-29T22:33:09.030Z,99149.00
2019-03-29T22:38:16.942Z,99147.00
2019-03-29T22:43:23.803Z,99152.00
2019-03-29T22:48:31.126Z,99139.00
2019-03-29T22:53:38.325Z,99136.00
2019-03-29T22:58:46.041Z,99132.00
2019-03-29T23:03:54.673Z,99128.00
2019-03-29T23:09:03.721Z,99119.00
2019-03-29T23:14:10.851Z,99124.00
2019-03-29T23:19:17.700Z,99116.00
2019-03-29T23:29:53.506Z,99113.00
2019-03-29T23:35:01.351Z,99109.00
2019-03-29T23:40:08.335Z,99108.00
2019-03-29T23:45:14.508Z,99096.00
2019-03-29T23:50:22.340Z,99096.00
2019-03-29T23:55:29.415Z,99096.00
